createdAt,value
2023-09-05T00:02:18.767Z,53.47
2023-09-05T00:04:46.184Z,53.59
2023-09-05T00:07:13.176Z,53.75
2023-09-05T00:09:39.891Z,53.83
2023-09-05T00:12:08.263Z,54.00
2023-09-05T00:14:37.540Z,54.08
2023-09-05T00:17:04.812Z,54.22
2023-09-05T00:19:31.453Z,54.26
2023-09-05T00:21:58.250Z,54.49
2023-09-05T00:24:36.372Z,54.67
2023-09-05T00:27:06.771Z,54.64
2023-09-05T00:29:33.502Z,54.77
2023-09-05T00:32:01.416Z,54.89
2023-09-05T00:34:38.406Z,55.01
2023-09-05T00:37:10.570Z,55.16
2023-09-05T00:39:41.282Z,55.30
2023-09-05T00:42:13.997Z,55.48
2023-09-05T00:44:42.661Z,55.57
2023-09-05T00:47:12.697Z,55.69
2023-09-05T00:49:42.884Z,55.75
2023-09-05T00:52:11.914Z,55.88
2023-09-05T00:54:38.850Z,56.03
2023-09-05T00:57:06.660Z,56.10
2023-09-05T00:59:33.441Z,56.23
2023-09-05T01:02:00.149Z,56.40
2023-09-05T01:04:27.359Z,56.58
2023-09-05T01:07:07.921Z,56.66
2023-09-05T01:09:55.272Z,56.73
2023-09-05T01:12:24.360Z,56.91
2023-09-05T01:14:51.187Z,57.11
2023-09-05T01:17:17.945Z,57.26
2023-09-05T01:19:46.018Z,57.49
2023-09-05T01:22:37.112Z,57.52
2023-09-05T01:25:04.866Z,57.73
2023-09-05T01:27:31.869Z,57.91
2023-09-05T01:29:59.557Z,57.98
2023-09-05T01:32:28.114Z,58.20
2023-09-05T01:34:55.410Z,58.20
2023-09-05T01:37:23.139Z,58.33
2023-09-05T01:39:49.895Z,58.60
2023-09-05T01:42:16.522Z,58.65
2023-09-05T01:44:43.343Z,58.71
2023-09-05T01:47:10.450Z,58.77
2023-09-05T01:49:37.413Z,59.14
2023-09-05T01:52:04.385Z,59.09
2023-09-05T01:54:31.025Z,59.17
2023-09-05T01:56:57.748Z,59.27
2023-09-05T01:59:24.539Z,59.53
2023-09-05T02:01:51.406Z,59.51
2023-09-05T02:04:18.146Z,59.78
2023-09-05T02:06:44.821Z,59.75
2023-09-05T02:09:11.617Z,59.93
2023-09-05T02:11:38.268Z,60.17
2023-09-05T02:14:05.175Z,60.06
2023-09-05T02:16:32.267Z,60.11
2023-09-05T02:18:59.131Z,60.23
2023-09-05T02:21:25.823Z,60.31
2023-09-05T02:23:52.516Z,60.40
2023-09-05T02:26:19.187Z,60.43
2023-09-05T02:28:46.175Z,60.57
2023-09-05T02:31:13.374Z,60.75
2023-09-05T02:33:40.170Z,61.01
2023-09-05T02:36:19.949Z,61.15
2023-09-05T02:38:47.288Z,61.09
2023-09-05T02:41:16.193Z,61.28
2023-09-05T02:43:44.131Z,61.58
2023-09-05T02:46:11.293Z,61.48
2023-09-05T02:48:43.234Z,61.53
2023-09-05T02:51:12.655Z,61.57
2023-09-05T02:53:39.778Z,61.67
2023-09-05T02:56:06.882Z,61.71
2023-09-05T02:58:35.281Z,61.79
2023-09-05T03:01:08.401Z,61.94
2023-09-05T03:03:35.345Z,62.01
2023-09-05T03:06:12.709Z,62.05
2023-09-05T03:08:43.002Z,62.13
2023-09-05T03:11:10.243Z,62.19
2023-09-05T03:13:37.160Z,62.35
2023-09-05T03:16:04.320Z,62.47
2023-09-05T03:18:31.392Z,62.65
2023-09-05T03:20:59.494Z,62.82
2023-09-05T03:23:26.540Z,62.95
2023-09-05T03:25:54.066Z,63.09
2023-09-05T03:28:21.525Z,63.13
2023-09-05T03:30:48.191Z,63.38
2023-09-05T03:33:15.267Z,63.54
2023-09-05T03:35:44.121Z,63.60
2023-09-05T03:38:10.927Z,63.84
2023-09-05T03:40:37.632Z,63.87
2023-09-05T03:43:04.577Z,64.06
2023-09-05T03:45:32.125Z,64.23
2023-09-05T03:48:01.951Z,64.39
2023-09-05T03:50:30.477Z,64.49
2023-09-05T03:52:58.319Z,64.66
2023-09-05T03:55:25.548Z,64.72
2023-09-05T03:57:52.645Z,64.91
2023-09-05T04:00:20.035Z,65.18
2023-09-05T04:02:49.263Z,65.24
2023-09-05T04:05:17.667Z,65.31
2023-09-05T04:07:44.358Z,65.37
2023-09-05T04:10:11.858Z,65.42
2023-09-05T04:12:38.674Z,65.50
2023-09-05T04:15:06.375Z,65.54
2023-09-05T04:17:34.293Z,65.57
2023-09-05T04:20:02.519Z,65.59
2023-09-05T04:22:30.391Z,65.62
2023-09-05T04:24:58.061Z,65.68
2023-09-05T04:27:25.292Z,65.91
2023-09-05T04:29:55.807Z,66.11
2023-09-05T04:32:32.286Z,66.03
2023-09-05T04:35:04.499Z,66.14
2023-09-05T04:37:31.239Z,66.15
2023-09-05T04:40:02.107Z,66.17
2023-09-05T04:42:29.051Z,66.27
2023-09-05T04:44:55.720Z,66.50
2023-09-05T04:47:25.101Z,66.58
2023-09-05T04:49:59.096Z,66.58
2023-09-05T04:52:29.544Z,66.68
2023-09-05T04:55:00.974Z,66.72
2023-09-05T04:57:28.972Z,66.84
2023-09-05T05:00:01.501Z,66.81
2023-09-05T05:02:29.359Z,66.97
2023-09-05T05:04:56.321Z,67.07
2023-09-05T05:07:23.199Z,66.93
2023-09-05T05:09:50.080Z,66.96
2023-09-05T05:12:17.454Z,66.95
2023-09-05T05:14:44.290Z,66.96
2023-09-05T05:17:14.484Z,66.97
2023-09-05T05:19:42.016Z,67.28
2023-09-05T05:22:08.931Z,67.09
2023-09-05T05:24:35.697Z,67.06
2023-09-05T05:27:02.372Z,67.31
2023-09-05T05:29:33.432Z,67.40
2023-09-05T05:32:02.402Z,67.45
2023-09-05T05:34:31.356Z,67.55
2023-09-05T05:36:58.527Z,67.56
2023-09-05T05:39:26.747Z,67.55
2023-09-05T05:41:54.013Z,67.37
2023-09-05T05:44:22.711Z,67.23
2023-09-05T05:46:49.539Z,67.12
2023-09-05T05:49:16.194Z,67.03
2023-09-05T05:51:42.945Z,66.99
2023-09-05T05:54:09.771Z,67.00
2023-09-05T05:56:36.566Z,66.99
2023-09-05T05:59:03.643Z,66.94
2023-09-05T06:01:31.451Z,66.98
2023-09-05T06:03:58.236Z,66.76
2023-09-05T06:06:25.021Z,66.76
2023-09-05T06:08:51.825Z,66.60
2023-09-05T06:11:18.560Z,66.61
2023-09-05T06:13:45.121Z,66.58
2023-09-05T06:16:11.897Z,66.55
2023-09-05T06:18:38.614Z,66.46
2023-09-05T06:21:05.312Z,64.86
2023-09-05T06:23:33.816Z,60.70
2023-09-05T06:26:01.015Z,57.24
2023-09-05T06:28:27.966Z,53.79
2023-09-05T06:31:00.258Z,50.99
2023-09-05T06:33:29.590Z,48.59
2023-09-05T06:35:56.416Z,47.56
2023-09-05T06:38:24.826Z,46.56
2023-09-05T06:40:51.884Z,47.68
2023-09-05T06:43:18.602Z,49.29
2023-09-05T06:45:45.331Z,50.62
2023-09-05T06:48:12.054Z,51.44
2023-09-05T06:50:38.859Z,52.55
2023-09-05T06:53:05.542Z,53.09
2023-09-05T06:55:35.886Z,53.74
2023-09-05T06:58:02.656Z,54.20
2023-09-05T07:00:29.322Z,54.48
2023-09-05T07:02:56.084Z,54.76
2023-09-05T07:05:23.040Z,55.10
2023-09-05T07:07:49.751Z,55.40
2023-09-05T07:10:16.653Z,55.83
2023-09-05T07:12:43.449Z,56.26
2023-09-05T07:15:10.505Z,56.37
2023-09-05T07:17:37.191Z,56.38
2023-09-05T07:20:04.470Z,56.64
2023-09-05T07:22:31.014Z,56.73
2023-09-05T07:24:57.645Z,56.65
2023-09-05T07:27:24.284Z,56.88
2023-09-05T07:29:51.326Z,56.95
2023-09-05T07:32:18.119Z,56.81
2023-09-05T07:34:44.825Z,56.84
2023-09-05T07:37:12.245Z,56.76
2023-09-05T07:39:39.821Z,56.56
2023-09-05T07:42:06.512Z,56.27
2023-09-05T07:44:33.166Z,56.25
2023-09-05T07:46:59.814Z,56.19
2023-09-05T07:49:27.549Z,56.16
2023-09-05T07:51:55.819Z,55.85
2023-09-05T07:54:27.073Z,55.80
2023-09-05T07:56:53.773Z,55.79
2023-09-05T07:59:20.747Z,55.43
2023-09-05T08:01:47.439Z,53.78
2023-09-05T08:04:14.115Z,50.39
2023-09-05T08:06:43.289Z,47.26
2023-09-05T08:09:10.455Z,45.33
2023-09-05T08:11:37.122Z,43.91
2023-09-05T08:14:03.783Z,42.18
2023-09-05T08:16:30.680Z,40.89
2023-09-05T08:18:57.373Z,39.15
2023-09-05T08:21:24.039Z,37.73
2023-09-05T08:23:51.484Z,36.87
2023-09-05T08:26:18.175Z,34.59
2023-09-05T08:28:47.120Z,34.68
2023-09-05T08:31:18.867Z,34.57
2023-09-05T08:33:46.288Z,33.11
2023-09-05T08:36:12.871Z,32.30
2023-09-05T08:38:39.536Z,32.42
2023-09-05T08:41:08.447Z,31.91
2023-09-05T08:43:36.322Z,30.92
2023-09-05T08:46:04.102Z,30.09
2023-09-05T08:51:06.904Z,29.54
2023-09-05T08:53:42.497Z,29.14
2023-09-05T08:56:09.660Z,29.16
2023-09-05T08:58:38.077Z,28.40
2023-09-05T09:01:04.789Z,28.12
2023-09-05T09:03:32.589Z,27.31
2023-09-05T09:05:59.363Z,26.27
2023-09-05T09:08:26.336Z,26.82
2023-09-05T09:11:10.320Z,27.08
2023-09-05T09:13:41.861Z,26.68
2023-09-05T09:16:08.562Z,26.11
2023-09-05T09:18:35.702Z,26.70
2023-09-05T09:21:06.512Z,26.18
2023-09-05T09:23:34.710Z,26.11
2023-09-05T09:26:03.736Z,26.92
2023-09-05T09:28:33.468Z,26.61
2023-09-05T09:31:12.242Z,25.35
2023-09-05T09:33:40.619Z,24.68
2023-09-05T09:36:12.905Z,24.60
2023-09-05T09:38:40.886Z,24.51
2023-09-05T09:41:08.642Z,24.72
2023-09-05T09:43:39.175Z,23.78
2023-09-05T09:46:09.690Z,24.15
2023-09-05T09:48:37.788Z,24.48
2023-09-05T09:51:08.107Z,24.07
2023-09-05T09:53:41.104Z,23.97
2023-09-05T09:56:14.650Z,23.72
2023-09-05T09:58:45.845Z,23.29
2023-09-05T10:01:14.989Z,23.68
2023-09-05T10:03:45.500Z,23.87
2023-09-05T10:06:12.717Z,23.89
2023-09-05T10:08:46.400Z,24.68
2023-09-05T10:11:16.102Z,25.07
2023-09-05T10:13:44.193Z,25.70
2023-09-05T10:16:13.864Z,26.44
2023-09-05T10:18:45.263Z,27.23
2023-09-05T10:21:13.533Z,27.71
2023-09-05T10:23:40.975Z,28.05
2023-09-05T10:26:10.376Z,28.50
2023-09-05T10:28:38.254Z,29.25
2023-09-05T10:31:17.167Z,29.85
2023-09-05T10:33:46.768Z,30.36
2023-09-05T10:36:41.106Z,30.54
2023-09-05T10:39:26.647Z,31.34
2023-09-05T10:41:54.537Z,32.12
2023-09-05T10:44:25.190Z,32.93
2023-09-05T10:46:55.757Z,32.97
2023-09-05T10:49:23.887Z,33.13
2023-09-05T10:52:20.682Z,32.96
2023-09-05T10:54:47.729Z,33.18
2023-09-05T10:57:40.398Z,33.41
2023-09-05T11:00:31.160Z,33.26
2023-09-05T11:03:12.948Z,33.00
2023-09-05T11:05:46.897Z,33.86
2023-09-05T11:08:24.121Z,34.74
2023-09-05T11:10:56.460Z,35.14
2023-09-05T11:13:23.313Z,34.57
2023-09-05T11:15:59.715Z,34.70
2023-09-05T11:18:27.055Z,35.02
2023-09-05T11:20:54.906Z,35.10
2023-09-05T11:23:26.903Z,35.46
2023-09-05T11:25:57.302Z,35.60
2023-09-05T11:28:25.752Z,35.14
2023-09-05T11:30:58.612Z,34.66
2023-09-05T11:33:28.290Z,34.37
2023-09-05T11:35:55.244Z,34.04
2023-09-05T11:38:24.360Z,34.25
2023-09-05T11:40:57.059Z,33.81
2023-09-05T11:43:25.326Z,34.25
2023-09-05T11:45:58.579Z,34.46
2023-09-05T11:48:32.938Z,34.42
2023-09-05T11:51:00.084Z,35.59
2023-09-05T11:53:27.522Z,35.45
2023-09-05T11:55:54.289Z,34.40
2023-09-05T11:58:20.995Z,34.01
2023-09-05T12:00:52.401Z,33.94
2023-09-05T12:03:19.418Z,33.84
2023-09-05T12:05:53.367Z,33.71
2023-09-05T12:13:41.288Z,33.80
2023-09-05T12:16:11.214Z,33.21
2023-09-05T12:18:44.155Z,34.66
2023-09-05T12:21:13.107Z,36.08
2023-09-05T12:23:39.915Z,36.61
2023-09-05T12:26:07.495Z,36.87
2023-09-05T12:28:35.835Z,36.87
2023-09-05T12:31:12.091Z,36.87
2023-09-05T12:33:41.525Z,36.89
2023-09-05T12:36:08.204Z,36.80
2023-09-05T12:38:34.984Z,36.67
2023-09-05T12:41:03.083Z,36.40
2023-09-05T12:43:29.727Z,36.48
2023-09-05T12:45:56.377Z,36.18
2023-09-05T12:48:23.189Z,35.94
2023-09-05T12:50:51.179Z,35.81
2023-09-05T12:53:20.560Z,35.65
2023-09-05T12:55:49.250Z,35.15
2023-09-05T12:58:15.935Z,34.46
2023-09-05T13:00:44.518Z,34.37
2023-09-05T13:03:13.021Z,34.16
2023-09-05T13:05:41.727Z,34.34
2023-09-05T13:08:11.344Z,34.43
2023-09-05T13:10:39.203Z,34.29
2023-09-05T13:13:08.221Z,34.23
2023-09-05T13:15:35.579Z,34.14
2023-09-05T13:18:03.104Z,34.19
2023-09-05T13:20:32.500Z,34.16
2023-09-05T13:23:00.231Z,34.16
2023-09-05T13:25:30.241Z,34.04
2023-09-05T13:27:57.152Z,33.99
2023-09-05T13:30:23.883Z,33.81
2023-09-05T13:32:52.961Z,33.87
2023-09-05T13:35:20.036Z,33.93
2023-09-05T13:37:47.019Z,33.90
2023-09-05T13:40:14.520Z,33.97
2023-09-05T13:42:41.353Z,33.96
2023-09-05T13:45:09.163Z,34.06
2023-09-05T13:47:39.078Z,33.93
2023-09-05T13:50:09.977Z,34.09
2023-09-05T13:52:36.686Z,34.10
2023-09-05T13:55:03.668Z,34.04
2023-09-05T13:57:30.512Z,33.92
2023-09-05T13:59:57.250Z,33.86
2023-09-05T14:02:26.310Z,34.00
2023-09-05T14:04:53.685Z,34.30
2023-09-05T14:07:20.932Z,34.69
2023-09-05T14:09:47.629Z,34.49
2023-09-05T14:12:19.460Z,34.59
2023-09-05T14:14:46.483Z,34.35
2023-09-05T14:17:15.495Z,34.11
2023-09-05T14:19:42.543Z,34.22
2023-09-05T14:22:10.014Z,34.35
2023-09-05T14:24:36.901Z,34.28
2023-09-05T14:27:04.023Z,34.18
2023-09-05T14:29:30.778Z,34.00
2023-09-05T14:31:57.833Z,34.05
2023-09-05T14:34:24.560Z,34.20
2023-09-05T14:36:53.320Z,34.42
2023-09-05T14:39:19.997Z,34.68
2023-09-05T14:41:49.683Z,34.35
2023-09-05T14:44:18.128Z,34.47
2023-09-05T14:46:45.094Z,34.44
2023-09-05T14:49:13.524Z,34.27
2023-09-05T14:51:42.569Z,33.86
2023-09-05T14:54:09.485Z,33.54
2023-09-05T14:56:37.941Z,33.54
2023-09-05T14:59:04.790Z,33.69
2023-09-05T15:01:31.552Z,33.84
2023-09-05T15:03:58.400Z,33.89
2023-09-05T15:06:25.210Z,33.77
2023-09-05T15:08:51.966Z,33.86
2023-09-05T15:11:18.567Z,33.83
2023-09-05T15:13:46.241Z,34.05
2023-09-05T15:16:13.100Z,34.11
2023-09-05T15:18:40.032Z,34.10
2023-09-05T15:21:06.746Z,34.25
2023-09-05T15:23:35.212Z,34.24
2023-09-05T15:26:01.912Z,34.10
2023-09-05T15:28:30.137Z,34.26
2023-09-05T15:30:56.798Z,34.49
2023-09-05T15:33:24.406Z,34.63
2023-09-05T15:36:03.215Z,34.77
2023-09-05T15:38:30.116Z,35.08
2023-09-05T15:40:57.201Z,35.51
2023-09-05T15:43:23.974Z,35.84
2023-09-05T15:45:53.093Z,36.09
2023-09-05T15:48:20.534Z,36.20
2023-09-05T15:50:48.914Z,36.41
2023-09-05T15:53:19.348Z,36.36
2023-09-05T15:55:46.077Z,36.56
2023-09-05T15:58:12.937Z,36.88
2023-09-05T16:00:39.943Z,37.07
2023-09-05T16:03:06.861Z,37.10
2023-09-05T16:05:33.889Z,37.09
2023-09-05T16:08:00.619Z,37.16
2023-09-05T16:10:27.654Z,37.21
2023-09-05T16:12:54.380Z,37.31
2023-09-05T16:15:21.426Z,37.51
2023-09-05T16:17:48.161Z,38.00
2023-09-05T16:20:15.457Z,38.25
2023-09-05T16:22:42.316Z,38.39
2023-09-05T16:25:11.654Z,38.52
2023-09-05T16:27:38.614Z,38.48
2023-09-05T16:30:09.317Z,38.29
2023-09-05T16:32:37.274Z,37.93
2023-09-05T16:35:05.154Z,37.57
2023-09-05T16:37:32.103Z,37.47
2023-09-05T16:40:00.291Z,37.33
2023-09-05T16:42:27.499Z,37.49
2023-09-05T16:44:57.233Z,37.54
2023-09-05T16:47:23.940Z,37.68
2023-09-05T16:49:50.986Z,37.65
2023-09-05T16:52:17.692Z,37.58
2023-09-05T16:54:45.483Z,37.58
2023-09-05T16:57:14.620Z,37.61
2023-09-05T16:59:42.189Z,37.77
2023-09-05T17:02:09.131Z,37.84
2023-09-05T17:04:35.830Z,38.01
2023-09-05T17:07:04.336Z,38.16
2023-09-05T17:09:31.076Z,38.23
2023-09-05T17:11:57.806Z,38.26
2023-09-05T17:14:24.509Z,38.44
2023-09-05T17:16:51.313Z,38.74
2023-09-05T17:19:18.035Z,39.07
2023-09-05T17:21:45.247Z,39.29
2023-09-05T17:24:11.955Z,39.38
2023-09-05T17:26:38.658Z,39.59
2023-09-05T17:29:05.537Z,39.78
2023-09-05T17:31:32.350Z,39.87
2023-09-05T17:33:59.922Z,39.99
2023-09-05T17:36:27.097Z,40.18
2023-09-05T17:38:53.708Z,40.25
2023-09-05T17:41:20.405Z,40.45
2023-09-05T17:43:47.490Z,40.56
2023-09-05T17:46:14.230Z,40.88
2023-09-05T17:48:41.027Z,41.03
2023-09-05T17:51:10.638Z,41.33
2023-09-05T17:53:37.493Z,41.54
2023-09-05T17:56:06.202Z,41.70
2023-09-05T17:58:32.868Z,42.08
2023-09-05T18:00:59.722Z,42.16
2023-09-05T18:03:26.594Z,42.43
2023-09-05T18:05:53.746Z,42.57
2023-09-05T18:08:20.438Z,42.81
2023-09-05T18:10:47.379Z,43.08
2023-09-05T18:13:14.296Z,43.29
2023-09-05T18:15:42.711Z,43.47
2023-09-05T18:18:10.479Z,43.60
2023-09-05T18:20:43.180Z,43.81
2023-09-05T18:23:10.003Z,44.20
2023-09-05T18:25:36.974Z,44.21
2023-09-05T18:28:04.037Z,44.47
2023-09-05T18:30:30.953Z,44.54
2023-09-05T18:32:57.954Z,44.64
2023-09-05T18:35:24.612Z,45.01
2023-09-05T18:37:51.258Z,45.14
2023-09-05T18:40:18.107Z,45.28
2023-09-05T18:42:44.869Z,45.34
2023-09-05T18:45:11.718Z,45.64
2023-09-05T18:47:38.707Z,45.70
2023-09-05T18:50:06.698Z,45.85
2023-09-05T18:52:33.427Z,46.09
2023-09-05T18:55:00.300Z,46.08
2023-09-05T18:57:28.356Z,46.39
2023-09-05T18:59:55.697Z,46.51
2023-09-05T19:02:29.689Z,46.87
2023-09-05T19:04:57.110Z,47.14
2023-09-05T19:07:24.524Z,47.03
2023-09-05T19:09:51.743Z,47.18
2023-09-05T19:12:19.837Z,47.31
2023-09-05T19:14:48.071Z,47.43
2023-09-05T19:17:15.676Z,47.43
2023-09-05T19:19:42.491Z,47.54
2023-09-05T19:22:09.182Z,47.80
2023-09-05T19:24:37.674Z,47.84
2023-09-05T19:27:05.397Z,47.94
2023-09-05T19:29:32.562Z,48.17
2023-09-05T19:31:59.339Z,48.24
2023-09-05T19:34:25.952Z,48.47
2023-09-05T19:36:53.421Z,48.57
2023-09-05T19:39:20.414Z,48.66
2023-09-05T19:41:47.272Z,48.75
2023-09-05T19:44:14.033Z,48.89
2023-09-05T19:46:44.578Z,48.95
2023-09-05T19:49:11.548Z,49.10
2023-09-05T19:51:38.438Z,49.18
2023-09-05T19:54:06.130Z,49.38
2023-09-05T19:56:32.732Z,49.32
2023-09-05T19:58:59.473Z,49.33
2023-09-05T20:01:26.396Z,49.53
2023-09-05T20:03:55.773Z,49.84
2023-09-05T20:06:22.760Z,49.79
2023-09-05T20:08:49.414Z,50.01
2023-09-05T20:11:16.188Z,50.06
2023-09-05T20:13:42.869Z,50.32
2023-09-05T20:16:12.144Z,50.50
2023-09-05T20:18:38.822Z,50.56
2023-09-05T20:21:05.561Z,50.58
2023-09-05T20:23:32.393Z,50.79
2023-09-05T20:25:59.152Z,50.89
2023-09-05T20:28:31.785Z,51.04
2023-09-05T20:31:00.312Z,51.20
2023-09-05T20:33:29.221Z,51.36
2023-09-05T20:36:04.697Z,51.53
2023-09-05T20:38:31.456Z,51.61
2023-09-05T20:40:58.207Z,51.71
2023-09-05T20:43:25.298Z,51.78
2023-09-05T20:45:52.290Z,51.86
2023-09-05T20:48:19.461Z,52.00
2023-09-05T20:50:46.340Z,52.29
2023-09-05T20:53:12.879Z,52.20
2023-09-05T20:55:39.583Z,52.35
2023-09-05T20:58:06.385Z,52.69
2023-09-05T21:00:33.344Z,52.67
2023-09-05T21:03:00.551Z,52.74
2023-09-05T21:05:31.060Z,52.83
2023-09-05T21:07:57.744Z,53.07
2023-09-05T21:10:26.238Z,53.20
2023-09-05T21:12:57.016Z,53.38
2023-09-05T21:15:25.081Z,53.49
2023-09-05T21:17:51.949Z,53.57
2023-09-05T21:20:18.964Z,53.67
2023-09-05T21:22:45.854Z,53.83
2023-09-05T21:25:14.610Z,54.04
2023-09-05T21:27:42.233Z,54.13
2023-09-05T21:30:10.467Z,54.30
2023-09-05T21:32:38.733Z,54.67
2023-09-05T21:35:06.346Z,54.64
2023-09-05T21:37:33.185Z,54.66
2023-09-05T21:40:00.675Z,54.81
2023-09-05T21:42:28.093Z,54.97
2023-09-05T21:44:55.155Z,55.03
2023-09-05T21:47:22.030Z,55.25
2023-09-05T21:50:18.775Z,55.31
2023-09-05T21:52:45.554Z,55.61
2023-09-05T21:55:12.243Z,55.69
2023-09-05T21:57:39.015Z,55.70
2023-09-05T22:00:07.438Z,55.90
2023-09-05T22:02:34.110Z,56.11
2023-09-05T22:05:01.496Z,56.25
2023-09-05T22:07:28.188Z,56.41
2023-09-05T22:09:54.856Z,56.57
2023-09-05T22:12:22.322Z,56.73
2023-09-05T22:14:49.028Z,56.79
2023-09-05T22:17:15.718Z,56.94
2023-09-05T22:19:43.630Z,57.12
2023-09-05T22:22:10.263Z,57.25
2023-09-05T22:24:38.174Z,57.34
2023-09-05T22:27:05.382Z,57.46
2023-09-05T22:29:36.278Z,57.66
2023-09-05T22:32:03.703Z,57.76
2023-09-05T22:34:30.597Z,57.87
2023-09-05T22:36:57.419Z,57.95
2023-09-05T22:39:24.902Z,58.06
2023-09-05T22:41:51.582Z,58.22
2023-09-05T22:44:18.264Z,58.32
2023-09-05T22:46:44.896Z,58.48
2023-09-05T22:49:11.587Z,58.55
2023-09-05T22:51:38.480Z,58.68
2023-09-05T22:54:05.767Z,58.73
2023-09-05T22:56:32.473Z,58.80
2023-09-05T22:58:59.159Z,58.94
2023-09-05T23:01:25.952Z,58.98
2023-09-05T23:03:52.824Z,59.08
2023-09-05T23:06:19.854Z,59.11
2023-09-05T23:08:46.437Z,59.21
2023-09-05T23:11:13.177Z,59.25
2023-09-05T23:13:39.878Z,59.38
2023-09-05T23:16:07.313Z,59.49
2023-09-05T23:18:36.344Z,59.50
2023-09-05T23:21:06.599Z,59.61
2023-09-05T23:23:36.320Z,59.76
2023-09-05T23:26:04.266Z,59.75
2023-09-05T23:28:32.208Z,59.79
2023-09-05T23:31:01.872Z,59.78
2023-09-05T23:33:31.713Z,59.90
2023-09-05T23:35:58.796Z,59.95
2023-09-05T23:38:25.633Z,59.99
2023-09-05T23:40:52.554Z,60.28
2023-09-05T23:43:19.426Z,60.59
2023-09-05T23:45:57.829Z,61.22
2023-09-05T23:48:27.645Z,61.27
2023-09-05T23:50:55.000Z,61.51
2023-09-05T23:53:21.605Z,61.76
2023-09-05T23:55:50.662Z,61.90
2023-09-05T23:58:17.380Z,61.95
